Wetterdaten: Woche 19.04.10 - 25.04.10 (KW16)
Datum Zeit Temp. Innen Temp. Aussen UV X Diff Temp. Feuchte Inne Feuchte Auss Sonnenschein Luftdruck Regen ab 0,1 Wind Sonnenschein Windben
19.04.2010 00:00 18,7 C 10,8 C 0,0 UV-I 0,0 C 41 % 60 % 0 % 1013,9 hPa 0,0 l/m 1,9 km/h (1 Bft) 0,00 h 3,2 km/h (1 Bft)
19.04.2010 01:00 18,5 C 9,7 C 0,0 UV-I 0,0 C 42 % 69 % 0 % 1014,3 hPa 0,0 l/m 1,0 km/h (0 Bft) 0,00 h 1,7 km/h (1 Bft)
19.04.2010 02:00 18,2 C 8,7 C 0,0 UV-I 0,0 C 43 % 75 % 0 % 1014,5 hPa 0,0 l/m 0,5 km/h (0 Bft) 0,00 h 1,7 km/h (1 Bft)
19.04.2010 03:00 17,9 C 8,0 C 0,0 UV-I 0,0 C 44 % 79 % 0 % 1014,9 hPa 0,0 l/m 1,9 km/h (1 Bft) 0,00 h 3,3 km/h (1 Bft)
19.04.2010 04:00 17,6 C 7,1 C 0,0 UV-I 0,0 C 45 % 82 % 0 % 1015,0 hPa 0,0 l/m 2,6 km/h (1 Bft) 0,00 h 4,2 km/h (1 Bft)
19.04.2010 05:00 17,3 C 6,4 C 0,0 UV-I 0,0 C 46 % 85 % 0 % 1015,3 hPa 0,0 l/m 5,8 km/h (2 Bft) 0,00 h 8,3 km/h (2 Bft)
19.04.2010 06:00 17,2 C 6,3 C 0,0 UV-I 0,0 C 46 % 87 % 0 % 1015,4 hPa 0,0 l/m 6,5 km/h (2 Bft) 0,00 h 8,5 km/h (2 Bft)
19.04.2010 07:00 17,0 C 6,3 C 0,0 UV-I 0,0 C 47 % 87 % 1 % 1015,8 hPa 0,0 l/m 4,7 km/h (1 Bft) 0,00 h 6,5 km/h (2 Bft)
19.04.2010 08:00 17,0 C 6,5 C 0,0 UV-I 0,2 C 47 % 86 % 5 % 1016,5 hPa 0,0 l/m 5,2 km/h (1 Bft) 0,00 h 7,7 km/h (2 Bft)
19.04.2010 09:00 17,0 C 6,7 C 0,2 UV-I 0,4 C 47 % 85 % 10 % 1016,9 hPa 0,0 l/m 4,8 km/h (1 Bft) 0,00 h 8,1 km/h (2 Bft)
19.04.2010 10:00 17,1 C 7,3 C 0,5 UV-I 0,7 C 47 % 82 % 20 % 1017,3 hPa 0,0 l/m 4,6 km/h (1 Bft) 0,00 h 6,1 km/h (2 Bft)
19.04.2010 11:00 17,2 C 7,9 C 1,2 UV-I 1,3 C 47 % 79 % 36 % 1017,9 hPa 0,0 l/m 6,5 km/h (2 Bft) 0,00 h 7,4 km/h (2 Bft)
19.04.2010 12:00 17,6 C 10,3 C 6,2 UV-I 7,3 C 46 % 73 % 98 % 1018,3 hPa 0,0 l/m 3,3 km/h (1 Bft) 0,97 h 5,0 km/h (1 Bft)
19.04.2010 13:00 18,6 C 13,5 C 8,4 UV-I 7,4 C 45 % 61 % 100 % 1018,2 hPa 0,0 l/m 5,3 km/h (1 Bft) 0,90 h 8,0 km/h (2 Bft)
19.04.2010 14:00 19,9 C 15,6 C 8,7 UV-I 6,3 C 42 % 52 % 100 % 1020,0 hPa 0,0 l/m 5,5 km/h (1 Bft) 0,90 h 7,7 km/h (2 Bft)
19.04.2010 15:00 21,2 C 17,3 C 9,1 UV-I 5,9 C 39 % 46 % 100 % 1020,3 hPa 0,0 l/m 6,4 km/h (2 Bft) 0,90 h 8,8 km/h (2 Bft)
19.04.2010 16:00 22,2 C 17,3 C 6,7 UV-I 3,8 C 36 % 44 % 95 % 1020,2 hPa 0,0 l/m 8,7 km/h (2 Bft) 0,87 h 10,8 km/h (2 Bft)
19.04.2010 17:00 21,8 C 16,2 C 2,6 UV-I 2,2 C 37 % 45 % 62 % 1018,9 hPa 0,0 l/m 8,5 km/h (2 Bft) 0,27 h 10,7 km/h (2 Bft)
19.04.2010 18:00 21,1 C 15,2 C 1,4 UV-I 0,9 C 38 % 46 % 27 % 1018,1 hPa 0,0 l/m 6,8 km/h (2 Bft) 0,00 h 9,2 km/h (2 Bft)
19.04.2010 19:00 20,5 C 14,3 C 0,5 UV-I 0,0 C 39 % 47 % 0 % 1017,3 hPa 0,0 l/m 4,6 km/h (1 Bft) 0,00 h 5,3 km/h (1 Bft)
19.04.2010 20:00 19,7 C 13,0 C 0,0 UV-I 0,0 C 40 % 49 % 0 % 1017,2 hPa 0,0 l/m 2,2 km/h (1 Bft) 0,00 h 3,6 km/h (1 Bft)
19.04.2010 21:00 19,0 C 11,2 C 0,0 UV-I 0,0 C 41 % 57 % 0 % 1017,1 hPa 0,0 l/m 0,1 km/h (0 Bft) 0,00 h 0,2 km/h (0 Bft)
19.04.2010 22:00 18,6 C 9,5 C 0,0 UV-I 0,0 C 42 % 63 % 0 % 1017,2 hPa 0,0 l/m 0,0 km/h (0 Bft) 0,00 h 0,0 km/h (0 Bft)
19.04.2010 23:00 18,1 C 7,9 C 0,0 UV-I 0,0 C 43 % 68 % 0 % 1016,7 hPa 0,0 l/m 0,0 km/h (0 Bft) 0,00 h 0,0 km/h (0 Bft)
20.04.2010 00:00 17,7 C 6,6 C 0,0 UV-I 0,0 C 44 % 73 % 0 % 1016,8 hPa 0,0 l/m 0,0 km/h (0 Bft) 0,00 h 0,0 km/h (0 Bft)
20.04.2010 01:00 17,3 C 5,5 C 0,0 UV-I 0,0 C 44 % 77 % 0 % 1016,4 hPa 0,0 l/m 0,0 km/h (0 Bft) 0,00 h 0,0 km/h (0 Bft)
20.04.2010 02:00 17,1 C 4,7 C 0,0 UV-I 0,0 C 44 % 81 % 0 % 1015,7 hPa 0,0 l/m 0,0 km/h (0 Bft) 0,00 h 0,0 km/h (0 Bft)
20.04.2010 03:00 17,0 C 4,0 C 0,0 UV-I 0,0 C 45 % 83 % 0 % 1015,4 hPa 0,0 l/m 0,0 km/h (0 Bft) 0,00 h 0,0 km/h (0 Bft)
20.04.2010 04:00 16,8 C 3,4 C 0,0 UV-I 0,0 C 45 % 85 % 0 % 1015,1 hPa 0,0 l/m 0,2 km/h (0 Bft) 0,00 h 0,9 km/h (0 Bft)
20.04.2010 05:00 16,7 C 3,2 C 0,0 UV-I 0,0 C 45 % 87 % 0 % 1014,5 hPa 0,0 l/m 1,8 km/h (1 Bft) 0,00 h 2,5 km/h (1 Bft)
20.04.2010 06:00 16,4 C 3,0 C 0,0 UV-I 0,0 C 45 % 87 % 0 % 1014,5 hPa 0,0 l/m 0,7 km/h (0 Bft) 0,00 h 0,6 km/h (0 Bft)
20.04.2010 07:00 16,2 C 3,0 C 0,0 UV-I 0,0 C 45 % 89 % 1 % 1014,8 hPa 0,0 l/m 2,9 km/h (1 Bft) 0,00 h 5,6 km/h (1 Bft)
20.04.2010 08:00 16,2 C 4,4 C 0,4 UV-I 0,9 C 46 % 90 % 26 % 1014,6 hPa 0,0 l/m 5,5 km/h (1 Bft) 0,00 h 9,4 km/h (2 Bft)
20.04.2010 09:00 16,3 C 6,6 C 1,2 UV-I 2,5 C 46 % 87 % 64 % 1014,2 hPa 0,0 l/m 6,0 km/h (2 Bft) 0,20 h 7,9 km/h (2 Bft)
20.04.2010 10:00 16,5 C 10,4 C 2,2 UV-I 7,3 C 46 % 73 % 100 % 1014,2 hPa 0,0 l/m 5,8 km/h (2 Bft) 0,93 h 9,7 km/h (2 Bft)
20.04.2010 11:00 16,9 C 13,6 C 4,5 UV-I 6,4 C 45 % 59 % 100 % 1014,3 hPa 0,0 l/m 7,5 km/h (2 Bft) 0,97 h 10,3 km/h (2 Bft)
20.04.2010 12:00 17,6 C 15,6 C 5,7 UV-I 4,8 C 44 % 49 % 98 % 1014,5 hPa 0,0 l/m 9,5 km/h (2 Bft) 0,97 h 13,6 km/h (3 Bft)
20.04.2010 13:00 18,5 C 16,8 C 5,3 UV-I 3,8 C 42 % 47 % 94 % 1015,0 hPa 0,0 l/m 9,6 km/h (2 Bft) 0,83 h 13,3 km/h (3 Bft)
20.04.2010 14:00 19,1 C 16,6 C 2,6 UV-I 1,7 C 42 % 51 % 47 % 1015,8 hPa 0,0 l/m 11,6 km/h (2 Bft) 0,03 h 19,7 km/h (3 Bft)
20.04.2010 15:00 19,3 C 15,4 C 2,6 UV-I 1,1 C 42 % 50 % 30 % 1016,0 hPa 0,0 l/m 12,5 km/h (3 Bft) 0,00 h 19,2 km/h (3 Bft)
20.04.2010 16:00 20,1 C 15,6 C 7,1 UV-I 3,7 C 39 % 43 % 85 % 1017,4 hPa 0,0 l/m 12,3 km/h (3 Bft) 0,57 h 18,1 km/h (3 Bft)
20.04.2010 17:00 21,4 C 15,7 C 3,5 UV-I 3,7 C 35 % 36 % 99 % 1019,3 hPa 0,0 l/m 13,7 km/h (3 Bft) 0,97 h 21,7 km/h (4 Bft)
20.04.2010 18:00 20,7 C 14,4 C 1,0 UV-I 0,9 C 35 % 37 % 25 % 1017,9 hPa 0,0 l/m 11,2 km/h (2 Bft) 0,00 h 16,5 km/h (3 Bft)
20.04.2010 19:00 19,9 C 12,7 C 0,2 UV-I 0,0 C 35 % 43 % 0 % 1017,5 hPa 0,0 l/m 11,1 km/h (2 Bft) 0,00 h 16,1 km/h (3 Bft)
20.04.2010 20:00 18,9 C 10,7 C 0,0 UV-I 0,0 C 38 % 50 % 0 % 1017,7 hPa 0,0 l/m 7,2 km/h (2 Bft) 0,00 h 8,5 km/h (2 Bft)
20.04.2010 21:00 18,1 C 9,0 C 0,0 UV-I 0,0 C 39 % 55 % 0 % 1018,3 hPa 0,0 l/m 1,9 km/h (1 Bft) 0,00 h 3,2 km/h (1 Bft)
20.04.2010 22:00 17,6 C 7,7 C 0,0 UV-I 0,0 C 41 % 61 % 0 % 1018,5 hPa 0,0 l/m 1,2 km/h (1 Bft) 0,00 h 0,9 km/h (0 Bft)
20.04.2010 23:00 17,2 C 6,6 C 0,0 UV-I 0,0 C 41 % 67 % 0 % 1018,7 hPa 0,0 l/m 0,8 km/h (0 Bft) 0,00 h 1,9 km/h (1 Bft)
21.04.2010 00:00 17,0 C 5,6 C 0,0 UV-I 0,0 C 42 % 71 % 0 % 1018,7 hPa 0,0 l/m 0,0 km/h (0 Bft) 0,00 h 0,0 km/h (0 Bft)
21.04.2010 01:00 16,8 C 4,7 C 0,0 UV-I 0,0 C 42 % 76 % 0 % 1018,5 hPa 0,0 l/m 0,0 km/h (0 Bft) 0,00 h 0,0 km/h (0 Bft)
21.04.2010 02:00 16,8 C 4,4 C 0,0 UV-I 0,0 C 43 % 79 % 0 % 1018,2 hPa 0,0 l/m 0,0 km/h (0 Bft) 0,00 h 0,0 km/h (0 Bft)
21.04.2010 03:00 16,6 C 4,6 C 0,0 UV-I 0,1 C 43 % 80 % 0 % 1017,8 hPa 0,0 l/m 0,0 km/h (0 Bft) 0,00 h 0,2 km/h (0 Bft)
21.04.2010 04:00 16,5 C 4,8 C 0,0 UV-I 0,0 C 43 % 80 % 0 % 1017,9 hPa 0,0 l/m 0,0 km/h (0 Bft) 0,00 h 0,0 km/h (0 Bft)
21.04.2010 05:00 16,2 C 4,3 C 0,0 UV-I 0,0 C 44 % 81 % 0 % 1017,5 hPa 0,0 l/m 0,0 km/h (0 Bft) 0,00 h 0,0 km/h (0 Bft)
21.04.2010 06:00 16,0 C 4,0 C 0,0 UV-I 0,0 C 44 % 83 % 0 % 1017,3 hPa 0,0 l/m 0,0 km/h (0 Bft) 0,00 h 0,0 km/h (0 Bft)
21.04.2010 07:00 16,0 C 4,3 C 0,0 UV-I 0,3 C 44 % 84 % 7 % 1017,4 hPa 0,0 l/m 0,0 km/h (0 Bft) 0,00 h 0,2 km/h (0 Bft)
21.04.2010 08:00 16,0 C 5,2 C 0,0 UV-I 0,6 C 45 % 84 % 17 % 1018,1 hPa 0,0 l/m 0,7 km/h (0 Bft) 0,00 h 2,1 km/h (1 Bft)
21.04.2010 09:00 16,0 C 6,2 C 0,4 UV-I 1,0 C 45 % 80 % 28 % 1018,5 hPa 0,0 l/m 2,8 km/h (1 Bft) 0,00 h 6,1 km/h (2 Bft)
21.04.2010 10:00 16,3 C 7,9 C 2,7 UV-I 4,4 C 44 % 66 % 87 % 1018,9 hPa 0,0 l/m 5,9 km/h (2 Bft) 0,67 h 11,4 km/h (2 Bft)
21.04.2010 11:00 16,5 C 9,8 C 3,6 UV-I 5,3 C 43 % 52 % 100 % 1019,0 hPa 0,0 l/m 6,7 km/h (2 Bft) 0,97 h 9,9 km/h (2 Bft)
21.04.2010 12:00 16,8 C 11,3 C 5,3 UV-I 4,7 C 41 % 43 % 86 % 1018,9 hPa 0,0 l/m 7,9 km/h (2 Bft) 0,63 h 10,2 km/h (2 Bft)
21.04.2010 13:00 17,4 C 11,9 C 5,3 UV-I 3,4 C 41 % 41 % 86 % 1019,1 hPa 0,0 l/m 8,3 km/h (2 Bft) 0,60 h 11,2 km/h (2 Bft)
21.04.2010 14:00 18,1 C 11,8 C 3,0 UV-I 1,3 C 39 % 42 % 36 % 1019,3 hPa 0,0 l/m 7,6 km/h (2 Bft) 0,10 h 9,4 km/h (2 Bft)
21.04.2010 15:00 18,3 C 11,3 C 1,3 UV-I 0,7 C 38 % 42 % 21 % 1019,7 hPa 0,0 l/m 7,7 km/h (2 Bft) 0,00 h 14,1 km/h (3 Bft)
21.04.2010 16:00 18,4 C 11,3 C 2,8 UV-I 1,9 C 38 % 42 % 53 % 1019,4 hPa 0,0 l/m 9,7 km/h (2 Bft) 0,13 h 17,4 km/h (3 Bft)
21.04.2010 17:00 19,0 C 11,7 C 2,4 UV-I 2,3 C 37 % 43 % 62 % 1020,5 hPa 0,0 l/m 10,4 km/h (2 Bft) 0,27 h 14,3 km/h (3 Bft)
21.04.2010 18:00 19,2 C 11,1 C 1,3 UV-I 0,9 C 36 % 46 % 26 % 1020,2 hPa 0,0 l/m 9,1 km/h (2 Bft) 0,00 h 12,4 km/h (3 Bft)
21.04.2010 19:00 18,3 C 10,0 C 0,2 UV-I 0,0 C 37 % 48 % 0 % 1019,4 hPa 0,0 l/m 7,0 km/h (2 Bft) 0,00 h 8,9 km/h (2 Bft)
21.04.2010 20:00 17,5 C 8,8 C 0,0 UV-I 0,0 C 39 % 53 % 0 % 1019,3 hPa 0,0 l/m 4,9 km/h (1 Bft) 0,00 h 7,0 km/h (2 Bft)
21.04.2010 21:00 16,8 C 7,2 C 0,0 UV-I 0,0 C 40 % 58 % 0 % 1019,5 hPa 0,0 l/m 1,2 km/h (1 Bft) 0,00 h 0,9 km/h (0 Bft)
21.04.2010 22:00 16,4 C 5,4 C 0,0 UV-I 0,0 C 40 % 64 % 0 % 1020,0 hPa 0,0 l/m 0,0 km/h (0 Bft) 0,00 h 0,0 km/h (0 Bft)
21.04.2010 23:00 16,2 C 4,0 C 0,0 UV-I 0,0 C 41 % 68 % 0 % 1019,9 hPa 0,0 l/m 0,0 km/h (0 Bft) 0,00 h 0,0 km/h (0 Bft)
22.04.2010 00:00 15,9 C 2,8 C 0,0 UV-I 0,0 C 41 % 72 % 0 % 1019,9 hPa 0,0 l/m 0,0 km/h (0 Bft) 0,00 h 0,0 km/h (0 Bft)
22.04.2010 01:00 15,7 C 1,8 C 0,0 UV-I 0,0 C 41 % 76 % 0 % 1019,9 hPa 0,0 l/m 0,0 km/h (0 Bft) 0,00 h 0,0 km/h (0 Bft)
22.04.2010 02:00 15,5 C 1,2 C 0,0 UV-I 0,0 C 41 % 79 % 0 % 1019,7 hPa 0,0 l/m 0,0 km/h (0 Bft) 0,00 h 0,0 km/h (0 Bft)
22.04.2010 03:00 15,3 C 0,8 C 0,0 UV-I 0,0 C 41 % 81 % 0 % 1019,6 hPa 0,0 l/m 0,0 km/h (0 Bft) 0,00 h 0,0 km/h (0 Bft)
22.04.2010 04:00 15,2 C 0,6 C 0,0 UV-I 0,0 C 41 % 82 % 0 % 1019,6 hPa 0,0 l/m 0,0 km/h (0 Bft) 0,00 h 0,0 km/h (0 Bft)
22.04.2010 05:00 15,0 C 0,2 C 0,0 UV-I 0,0 C 41 % 84 % 0 % 1019,1 hPa 0,0 l/m 0,0 km/h (0 Bft) 0,00 h 0,0 km/h (0 Bft)
22.04.2010 06:00 14,9 C -0,1 C 0,0 UV-I 0,0 C 42 % 85 % 0 % 1019,0 hPa 0,0 l/m 0,0 km/h (0 Bft) 0,00 h 0,0 km/h (0 Bft)
22.04.2010 07:00 14,8 C 0,1 C 0,0 UV-I 0,0 C 42 % 86 % 0 % 1019,2 hPa 0,0 l/m 0,0 km/h (0 Bft) 0,00 h 0,0 km/h (0 Bft)
22.04.2010 08:00 14,8 C 1,4 C 0,4 UV-I 0,3 C 42 % 86 % 9 % 1019,5 hPa 0,0 l/m 0,7 km/h (0 Bft) 0,00 h 2,5 km/h (1 Bft)
22.04.2010 09:00 15,0 C 3,3 C 0,9 UV-I 3,0 C 42 % 84 % 75 % 1019,7 hPa 0,0 l/m 0,9 km/h (0 Bft) 0,20 h 2,0 km/h (1 Bft)
22.04.2010 10:00 15,3 C 5,7 C 0,9 UV-I 5,9 C 42 % 71 % 100 % 1019,6 hPa 0,0 l/m 1,9 km/h (1 Bft) 0,97 h 2,7 km/h (1 Bft)
22.04.2010 11:00 15,7 C 7,3 C 2,1 UV-I 3,8 C 41 % 63 % 99 % 1019,7 hPa 0,0 l/m 2,7 km/h (1 Bft) 0,70 h 6,5 km/h (2 Bft)
22.04.2010 12:00 16,0 C 9,0 C 6,3 UV-I 5,8 C 41 % 57 % 99 % 1019,3 hPa 0,0 l/m 3,4 km/h (1 Bft) 0,87 h 5,1 km/h (1 Bft)
22.04.2010 13:00 16,5 C 11,9 C 9,3 UV-I 6,7 C 41 % 49 % 100 % 1018,7 hPa 0,0 l/m 5,4 km/h (1 Bft) 0,93 h 8,1 km/h (2 Bft)
22.04.2010 14:00 18,1 C 13,3 C 11,1 UV-I 5,9 C 39 % 43 % 100 % 1021,2 hPa 0,0 l/m 6,1 km/h (2 Bft) 1,00 h 8,7 km/h (2 Bft)
22.04.2010 15:00 20,2 C 14,9 C 12,5 UV-I 5,8 C 35 % 40 % 100 % 1021,8 hPa 0,0 l/m 4,9 km/h (1 Bft) 0,93 h 7,7 km/h (2 Bft)
22.04.2010 16:00 21,8 C 15,4 C 11,9 UV-I 5,5 C 33 % 38 % 100 % 1021,9 hPa 0,0 l/m 6,4 km/h (2 Bft) 0,93 h 10,1 km/h (2 Bft)
22.04.2010 17:00 22,2 C 15,2 C 4,3 UV-I 4,9 C 32 % 37 % 100 % 1021,1 hPa 0,0 l/m 5,6 km/h (1 Bft) 1,00 h 6,9 km/h (2 Bft)
22.04.2010 18:00 21,2 C 13,6 C 1,1 UV-I 0,9 C 34 % 41 % 27 % 1018,5 hPa 0,0 l/m 6,7 km/h (2 Bft) 0,07 h 9,0 km/h (2 Bft)
22.04.2010 19:00 20,1 C 12,1 C 0,2 UV-I 0,0 C 34 % 44 % 0 % 1017,0 hPa 0,0 l/m 6,7 km/h (2 Bft) 0,00 h 7,6 km/h (2 Bft)
22.04.2010 20:00 18,9 C 10,7 C 0,0 UV-I 0,0 C 36 % 47 % 0 % 1016,2 hPa 0,0 l/m 3,6 km/h (1 Bft) 0,00 h 4,1 km/h (1 Bft)
22.04.2010 21:00 17,9 C 9,0 C 0,0 UV-I 0,0 C 38 % 54 % 0 % 1016,2 hPa 0,0 l/m 0,0 km/h (0 Bft) 0,00 h 0,0 km/h (0 Bft)
22.04.2010 22:00 17,3 C 7,2 C 0,0 UV-I 0,0 C 39 % 61 % 0 % 1016,2 hPa 0,0 l/m 0,0 km/h (0 Bft) 0,00 h 0,0 km/h (0 Bft)
22.04.2010 23:00 16,9 C 5,7 C 0,0 UV-I 0,0 C 39 % 67 % 0 % 1016,2 hPa 0,0 l/m 0,0 km/h (0 Bft) 0,00 h 0,0 km/h (0 Bft)
23.04.2010 00:00 16,7 C 4,4 C 0,0 UV-I 0,0 C 40 % 71 % 0 % 1015,9 hPa 0,0 l/m 0,0 km/h (0 Bft) 0,00 h 0,0 km/h (0 Bft)
23.04.2010 01:00 16,4 C 3,4 C 0,0 UV-I 0,0 C 40 % 75 % 0 % 1015,9 hPa 0,0 l/m 0,0 km/h (0 Bft) 0,00 h 0,0 km/h (0 Bft)
23.04.2010 02:00 16,2 C 2,5 C 0,0 UV-I 0,0 C 40 % 78 % 0 % 1015,7 hPa 0,0 l/m 0,0 km/h (0 Bft) 0,00 h 0,0 km/h (0 Bft)
23.04.2010 03:00 15,9 C 1,8 C 0,0 UV-I 0,0 C 41 % 80 % 0 % 1015,4 hPa 0,0 l/m 0,0 km/h (0 Bft) 0,00 h 0,0 km/h (0 Bft)
23.04.2010 04:00 15,7 C 1,4 C 0,0 UV-I 0,0 C 41 % 82 % 0 % 1015,4 hPa 0,0 l/m 0,0 km/h (0 Bft) 0,00 h 0,0 km/h (0 Bft)
23.04.2010 05:00 15,4 C 1,1 C 0,0 UV-I 0,0 C 41 % 83 % 0 % 1015,4 hPa 0,0 l/m 0,0 km/h (0 Bft) 0,00 h 0,0 km/h (0 Bft)
23.04.2010 06:00 15,2 C 0,7 C 0,0 UV-I 0,0 C 41 % 84 % 0 % 1015,6 hPa 0,0 l/m 0,0 km/h (0 Bft) 0,00 h 0,0 km/h (0 Bft)
23.04.2010 07:00 15,2 C 1,0 C 0,0 UV-I 0,0 C 42 % 86 % 0 % 1015,8 hPa 0,0 l/m 0,0 km/h (0 Bft) 0,00 h 0,1 km/h (0 Bft)
23.04.2010 08:00 15,2 C 2,2 C 0,4 UV-I 0,8 C 42 % 86 % 22 % 1016,2 hPa 0,0 l/m 0,4 km/h (0 Bft) 0,00 h 0,9 km/h (0 Bft)
23.04.2010 09:00 15,4 C 4,4 C 0,9 UV-I 3,0 C 42 % 83 % 68 % 1016,1 hPa 0,0 l/m 0,9 km/h (0 Bft) 0,23 h 1,1 km/h (1 Bft)
23.04.2010 10:00 15,6 C 8,3 C 2,6 UV-I 9,8 C 43 % 69 % 100 % 1016,2 hPa 0,0 l/m 2,1 km/h (1 Bft) 1,00 h 4,4 km/h (1 Bft)
23.04.2010 11:00 15,9 C 12,4 C 4,5 UV-I 8,5 C 42 % 50 % 100 % 1016,5 hPa 0,0 l/m 3,5 km/h (1 Bft) 0,93 h 6,0 km/h (2 Bft)
23.04.2010 12:00 16,2 C 15,0 C 8,0 UV-I 6,8 C 42 % 41 % 100 % 1016,5 hPa 0,0 l/m 4,5 km/h (1 Bft) 1,00 h 7,0 km/h (2 Bft)
23.04.2010 13:00 16,9 C 17,0 C 8,9 UV-I 6,0 C 41 % 37 % 100 % 1016,6 hPa 0,0 l/m 2,9 km/h (1 Bft) 0,97 h 4,0 km/h (1 Bft)
23.04.2010 14:00 18,8 C 18,4 C 10,7 UV-I 5,6 C 38 % 33 % 100 % 1019,0 hPa 0,0 l/m 3,7 km/h (1 Bft) 0,97 h 5,5 km/h (1 Bft)
23.04.2010 15:00 20,7 C 18,8 C 11,3 UV-I 4,7 C 34 % 31 % 100 % 1019,6 hPa 0,0 l/m 6,6 km/h (2 Bft) 0,97 h 9,4 km/h (2 Bft)
23.04.2010 16:00 22,1 C 19,3 C 11,0 UV-I 4,9 C 32 % 28 % 100 % 1020,2 hPa 0,0 l/m 5,8 km/h (1 Bft) 0,97 h 7,7 km/h (2 Bft)
23.04.2010 17:00 22,7 C 19,2 C 4,1 UV-I 4,2 C 30 % 27 % 98 % 1019,9 hPa 0,0 l/m 6,4 km/h (2 Bft) 0,97 h 8,3 km/h (2 Bft)
23.04.2010 18:00 21,8 C 17,7 C 1,0 UV-I 1,0 C 32 % 30 % 29 % 1017,9 hPa 0,0 l/m 6,6 km/h (2 Bft) 0,00 h 9,1 km/h (2 Bft)
23.04.2010 19:00 20,7 C 16,2 C 0,2 UV-I 0,0 C 33 % 33 % 0 % 1016,5 hPa 0,0 l/m 5,7 km/h (1 Bft) 0,00 h 6,9 km/h (2 Bft)
23.04.2010 20:00 19,8 C 14,6 C 0,0 UV-I 0,0 C 34 % 38 % 0 % 1016,3 hPa 0,0 l/m 4,0 km/h (1 Bft) 0,00 h 5,7 km/h (1 Bft)
23.04.2010 21:00 19,0 C 12,5 C 0,0 UV-I 0,0 C 36 % 44 % 0 % 1016,8 hPa 0,0 l/m 0,8 km/h (0 Bft) 0,00 h 0,9 km/h (0 Bft)
23.04.2010 22:00 18,4 C 10,4 C 0,0 UV-I 0,0 C 37 % 53 % 0 % 1017,1 hPa 0,0 l/m 0,0 km/h (0 Bft) 0,00 h 0,0 km/h (0 Bft)
23.04.2010 23:00 17,9 C 8,6 C 0,0 UV-I 0,0 C 38 % 60 % 0 % 1017,3 hPa 0,0 l/m 0,0 km/h (0 Bft) 0,00 h 0,0 km/h (0 Bft)
24.04.2010 00:00 17,5 C 7,0 C 0,0 UV-I 0,0 C 39 % 65 % 0 % 1017,4 hPa 0,0 l/m 0,0 km/h (0 Bft) 0,00 h 0,0 km/h (0 Bft)
24.04.2010 01:00 17,2 C 5,6 C 0,0 UV-I 0,0 C 40 % 70 % 0 % 1017,6 hPa 0,0 l/m 0,0 km/h (0 Bft) 0,00 h 0,0 km/h (0 Bft)
24.04.2010 02:00 17,0 C 4,7 C 0,0 UV-I 0,0 C 40 % 74 % 0 % 1017,7 hPa 0,0 l/m 0,0 km/h (0 Bft) 0,00 h 0,0 km/h (0 Bft)
24.04.2010 03:00 16,8 C 3,8 C 0,0 UV-I 0,0 C 41 % 77 % 0 % 1017,8 hPa 0,0 l/m 0,0 km/h (0 Bft) 0,00 h 0,0 km/h (0 Bft)
24.04.2010 04:00 16,7 C 3,1 C 0,0 UV-I 0,0 C 41 % 79 % 0 % 1018,0 hPa 0,0 l/m 0,0 km/h (0 Bft) 0,00 h 0,0 km/h (0 Bft)
24.04.2010 05:00 16,5 C 2,5 C 0,0 UV-I 0,0 C 41 % 81 % 0 % 1018,3 hPa 0,0 l/m 0,0 km/h (0 Bft) 0,00 h 0,0 km/h (0 Bft)
24.04.2010 06:00 16,2 C 2,0 C 0,0 UV-I 0,0 C 41 % 83 % 0 % 1018,7 hPa 0,0 l/m 0,0 km/h (0 Bft) 0,00 h 0,0 km/h (0 Bft)
24.04.2010 07:00 15,9 C 2,0 C 0,0 UV-I 0,1 C 42 % 85 % 2 % 1019,0 hPa 0,0 l/m 0,0 km/h (0 Bft) 0,00 h 0,0 km/h (0 Bft)
24.04.2010 08:00 16,0 C 3,6 C 0,3 UV-I 1,6 C 42 % 84 % 47 % 1019,8 hPa 0,0 l/m 0,2 km/h (0 Bft) 0,00 h 0,8 km/h (0 Bft)
24.04.2010 09:00 16,2 C 6,6 C 1,1 UV-I 3,7 C 42 % 78 % 85 % 1020,2 hPa 0,0 l/m 0,2 km/h (0 Bft) 0,53 h 0,5 km/h (0 Bft)
24.04.2010 10:00 16,5 C 11,0 C 3,1 UV-I 10,2 C 42 % 64 % 100 % 1020,5 hPa 0,0 l/m 1,5 km/h (1 Bft) 0,88 h 3,7 km/h (1 Bft)
24.04.2010 11:00 16,7 C 15,4 C 5,0 UV-I 7,5 C 42 % 49 % 100 % 1020,7 hPa 0,0 l/m 2,7 km/h (1 Bft) 1,00 h 5,0 km/h (1 Bft)
24.04.2010 12:00 17,2 C 18,2 C 6,9 UV-I 6,1 C 42 % 40 % 100 % 1020,8 hPa 0,0 l/m 2,5 km/h (1 Bft) 1,00 h 4,7 km/h (1 Bft)
24.04.2010 13:00 18,1 C 20,5 C 9,5 UV-I 6,8 C 40 % 32 % 100 % 1021,0 hPa 0,0 l/m 3,2 km/h (1 Bft) 1,00 h 4,1 km/h (1 Bft)
24.04.2010 14:00 19,7 C 22,0 C 10,8 UV-I 5,7 C 37 % 28 % 100 % 1023,1 hPa 0,0 l/m 5,4 km/h (1 Bft) 1,00 h 8,1 km/h (2 Bft)
24.04.2010 15:00 21,4 C 23,3 C 11,0 UV-I 5,2 C 34 % 25 % 100 % 1023,8 hPa 0,0 l/m 3,1 km/h (1 Bft) 1,00 h 4,5 km/h (1 Bft)
24.04.2010 16:00 22,6 C 24,2 C 10,8 UV-I 4,8 C 32 % 23 % 100 % 1024,1 hPa 0,0 l/m 2,1 km/h (1 Bft) 1,00 h 2,7 km/h (1 Bft)
24.04.2010 17:00 23,1 C 24,7 C 5,1 UV-I 4,6 C 32 % 23 % 100 % 1023,8 hPa 0,0 l/m 1,3 km/h (1 Bft) 1,00 h 2,3 km/h (1 Bft)
24.04.2010 18:00 22,5 C 23,0 C 1,5 UV-I 0,8 C 33 % 23 % 23 % 1021,8 hPa 0,0 l/m 1,8 km/h (1 Bft) 0,00 h 2,9 km/h (1 Bft)
24.04.2010 19:00 21,6 C 21,0 C 0,5 UV-I 0,0 C 33 % 25 % 0 % 1020,8 hPa 0,0 l/m 0,8 km/h (0 Bft) 0,00 h 1,4 km/h (1 Bft)
24.04.2010 20:00 20,8 C 18,8 C 0,0 UV-I 0,0 C 34 % 32 % 0 % 1020,4 hPa 0,0 l/m 0,0 km/h (0 Bft) 0,00 h 0,0 km/h (0 Bft)
24.04.2010 21:00 20,1 C 16,1 C 0,0 UV-I 0,0 C 36 % 38 % 0 % 1020,7 hPa 0,0 l/m 0,0 km/h (0 Bft) 0,00 h 0,0 km/h (0 Bft)
24.04.2010 22:00 19,6 C 14,4 C 0,0 UV-I 0,0 C 37 % 42 % 0 % 1021,1 hPa 0,0 l/m 0,0 km/h (0 Bft) 0,00 h 0,0 km/h (0 Bft)
24.04.2010 23:00 19,3 C 13,0 C 0,0 UV-I 0,0 C 37 % 47 % 0 % 1021,1 hPa 0,0 l/m 0,0 km/h (0 Bft) 0,00 h 0,0 km/h (0 Bft)
25.04.2010 00:00 19,1 C 11,6 C 0,0 UV-I 0,0 C 38 % 54 % 0 % 1021,1 hPa 0,0 l/m 0,0 km/h (0 Bft) 0,00 h 0,0 km/h (0 Bft)
25.04.2010 01:00 18,8 C 9,9 C 0,0 UV-I 0,0 C 39 % 61 % 0 % 1021,1 hPa 0,0 l/m 0,0 km/h (0 Bft) 0,00 h 0,0 km/h (0 Bft)
25.04.2010 02:00 18,4 C 8,6 C 0,0 UV-I 0,0 C 40 % 67 % 0 % 1021,0 hPa 0,0 l/m 0,0 km/h (0 Bft) 0,00 h 0,0 km/h (0 Bft)
25.04.2010 03:00 18,1 C 7,5 C 0,0 UV-I 0,0 C 41 % 72 % 0 % 1020,7 hPa 0,0 l/m 0,0 km/h (0 Bft) 0,00 h 0,0 km/h (0 Bft)
25.04.2010 04:00 17,8 C 7,3 C 0,0 UV-I 0,4 C 41 % 72 % 0 % 1020,7 hPa 0,0 l/m 0,6 km/h (0 Bft) 0,00 h 1,8 km/h (1 Bft)
25.04.2010 05:00 17,7 C 8,4 C 0,0 UV-I 0,6 C 41 % 69 % 0 % 1020,8 hPa 0,0 l/m 5,0 km/h (1 Bft) 0,00 h 8,2 km/h (2 Bft)
25.04.2010 06:00 17,6 C 9,2 C 0,0 UV-I 0,0 C 41 % 66 % 0 % 1020,9 hPa 0,0 l/m 8,6 km/h (2 Bft) 0,00 h 13,1 km/h (3 Bft)
25.04.2010 07:00 17,6 C 9,6 C 0,2 UV-I 0,3 C 41 % 65 % 8 % 1021,2 hPa 0,0 l/m 8,2 km/h (2 Bft) 0,00 h 11,4 km/h (2 Bft)
25.04.2010 08:00 17,6 C 11,0 C 0,7 UV-I 1,1 C 42 % 64 % 31 % 1021,4 hPa 0,0 l/m 9,5 km/h (2 Bft) 0,00 h 13,8 km/h (3 Bft)
25.04.2010 09:00 17,9 C 13,3 C 1,3 UV-I 3,1 C 42 % 60 % 73 % 1021,8 hPa 0,0 l/m 6,7 km/h (2 Bft) 0,23 h 9,7 km/h (2 Bft)
25.04.2010 10:00 18,5 C 16,0 C 2,6 UV-I 4,6 C 42 % 53 % 91 % 1021,8 hPa 0,0 l/m 8,5 km/h (2 Bft) 0,77 h 13,4 km/h (3 Bft)
25.04.2010 11:00 18,9 C 19,3 C 5,6 UV-I 5,4 C 41 % 47 % 100 % 1021,7 hPa 0,0 l/m 7,2 km/h (2 Bft) 0,97 h 9,8 km/h (2 Bft)
25.04.2010 12:00 19,3 C 21,4 C 3,4 UV-I 1,9 C 41 % 41 % 54 % 1021,7 hPa 0,0 l/m 8,1 km/h (2 Bft) 0,27 h 10,3 km/h (2 Bft)
25.04.2010 13:00 19,9 C 23,7 C 9,5 UV-I 5,5 C 40 % 37 % 98 % 1021,6 hPa 0,0 l/m 5,8 km/h (2 Bft) 0,93 h 7,5 km/h (2 Bft)
25.04.2010 14:00 21,1 C 26,7 C 10,1 UV-I 5,4 C 39 % 31 % 100 % 1023,4 hPa 0,0 l/m 3,7 km/h (1 Bft) 0,97 h 6,0 km/h (2 Bft)
25.04.2010 15:00 21,9 C 27,2 C 4,9 UV-I 1,9 C 37 % 28 % 55 % 1022,4 hPa 0,0 l/m 3,6 km/h (1 Bft) 0,10 h 5,1 km/h (1 Bft)
25.04.2010 16:00 22,3 C 26,6 C 4,4 UV-I 1,9 C 37 % 28 % 55 % 1022,0 hPa 0,0 l/m 4,4 km/h (1 Bft) 0,23 h 6,9 km/h (2 Bft)
25.04.2010 17:00 22,2 C 26,0 C 2,3 UV-I 1,7 C 37 % 29 % 48 % 1021,0 hPa 0,0 l/m 2,9 km/h (1 Bft) 0,00 h 4,1 km/h (1 Bft)
25.04.2010 18:00 22,1 C 25,4 C 0,7 UV-I 0,6 C 37 % 29 % 17 % 1020,4 hPa 0,0 l/m 0,8 km/h (0 Bft) 0,00 h 0,7 km/h (0 Bft)
25.04.2010 19:00 21,7 C 23,8 C 0,1 UV-I 0,0 C 38 % 32 % 0 % 1020,1 hPa 0,0 l/m 1,7 km/h (1 Bft) 0,00 h 2,3 km/h (1 Bft)
25.04.2010 20:00 21,3 C 21,8 C 0,0 UV-I 0,0 C 38 % 34 % 0 % 1020,1 hPa 0,0 l/m 6,1 km/h (2 Bft) 0,00 h 10,4 km/h (2 Bft)
25.04.2010 21:00 20,9 C 19,4 C 0,0 UV-I 0,0 C 39 % 46 % 0 % 1021,0 hPa 0,0 l/m 10,0 km/h (2 Bft) 0,00 h 16,5 km/h (3 Bft)
25.04.2010 22:00 20,5 C 17,0 C 0,0 UV-I 0,0 C 41 % 56 % 0 % 1022,8 hPa 0,0 l/m 11,7 km/h (2 Bft) 0,00 h 19,1 km/h (3 Bft)
25.04.2010 23:00 20,2 C 15,4 C 0,0 UV-I 0,0 C 42 % 67 % 0 % 1023,4 hPa 0,0 l/m 5,4 km/h (1 Bft) 0,00 h 8,5 km/h (2 Bft)
Min-Datum _ 22.04.10 22.04.10 19.04.10 19.04.10 23.04.10 24.04.10 19.04.10 19.04.10 - 19.04.10 - 19.04.10
_ Min-Zeit 06:16 06:28 00:02 00:02 16:46 16:16 00:02 00:02 - 02:12 - 00:08
Minimum _ 14,8 C -0,2 C 0,0 UV-I 0,0 C 30 % 22 % 0 % 1013,5 hPa - 0,0 km/h (0 Bft) - 0,0 km/h (0 Bft)
Max-Datum _ 24.04.10 25.04.10 22.04.10 24.04.10 19.04.10 20.04.10 19.04.10 24.04.10 19.04.10 20.04.10 19.04.10 20.04.10
_ Max-Zeit 17:14 14:52 15:36 10:12 06:36 07:54 12:06 16:12 00:02 17:22 12:02 17:12
Maximum _ 23,2 C 27,7 C 13,5 UV-I 11,1 C 47 % 90 % 100 % 1024,5 hPa 0,0 l/m 16,1 km/h
W-SW (3 Bft)
0,03 h 53,0 km/h
W-SW (7 Bft)
Durchschnitt _ 18,1 C 10,5 C 2,1 UV-I 1,8 C 40 % 60 % 33 % 1018,5 hPa #0,0 l/m 3,4 km/h (1 Bft) #42:07 h 5,0 km/h (1 Bft)
© 2012 W. Hausmann